LFMV/AVN METAR and TAF weather

Enter ICAO airport designator
Station Type Date Time Source
LFMV METAR 2019/06/26 06:00 UTC NOAA

LFMV 260600Z AUTO 00000KT CAVOK 23/17 Q1022 NOSIG


Station Type Date Time Source
LFMV Decoded METAR 2019/06/26 06:00 UTC NOAA

Station name not available
Jun 26, 2019 - 02:00 AM EDT / 2019.06.26 0600 UTC
Wind: Calm:0
Visibility: greater than 7 mile(s):0
Temperature: 73 F (23 C)
Dew Point: 62 F (17 C)
Relative Humidity: 68%
Pressure (altimeter): 30.18 in. Hg (1022 hPa)
ob: LFMV 260600Z AUTO 00000KT CAVOK 23/17 Q1022 NOSIG
cycle: 6

Station Type Date Time Source
LFMV TAF 2019/06/26 03:00 UTC NOAA

TAF LFMV 260200Z 2603/2703 VRB03KT CAVOK
TEMPO 2614/2618 20012KT

Example: see airport list